Back to Top

Language: 

My Weather Underground Personal Weather Station Historical Data with Graphs...

Delerius Weather Station Historical Data
Daily Summary for December 6, 2017 Units:  Metric    English   Both
« Previous Day
Next Day »
Daily Weekly Monthly Yearly Custom
  High: Low: Average:
Temperature: 11.1 °C 8.1 °C 9.9 °C
Dew Point: 8.5 °C 5.2 °C 6.5 °C
Humidity: 85 % 70 % 80 %
Wind Speed: 41.8 km/h 3.2 km/h 18.2 km/h
Wind Gust: 61.2 km/h - -
Wind:- - SW
Pressure: 1028.3 hPa 1008 hPa -
Precipitation: 0 mm    
Historical Graphs
 
 
Tabular Data for December 6, 2017
Time Temperature Dew Point Pressure Wind Wind Speed Wind Gust Humidity Rainfall Rate (Hourly) solar Conditions
00:03 8.1 °C 5.4 °C 1028.3 hPa WSW 14.5 km/h 20.9 km/h 83 % 0 mm 0 W/m2
00:08 8.2 °C 5.5 °C 1028.3 hPa WSW 9.7 km/h 14.5 km/h 83 % 0 mm 0 W/m2
00:13 8.2 °C 5.5 °C 1028.3 hPa WSW 4.8 km/h 9.7 km/h 83 % 0 mm 0 W/m2
00:18 8.2 °C 5.5 °C 1028 hPa SW 3.2 km/h 8 km/h 83 % 0 mm 0 W/m2
00:23 8.1 °C 5.4 °C 1028 hPa SW 4.8 km/h 11.3 km/h 83 % 0 mm 0 W/m2
00:28 8.2 °C 5.5 °C 1028 hPa SW 8 km/h 12.9 km/h 83 % 0 mm 0 W/m2
00:33 8.2 °C 5.5 °C 1028 hPa WSW 12.9 km/h 19.3 km/h 83 % 0 mm 0 W/m2
00:38 8.3 °C 5.6 °C 1028 hPa WSW 6.4 km/h 9.7 km/h 83 % 0 mm 0 W/m2
00:43 8.3 °C 5.6 °C 1028 hPa WSW 12.9 km/h 22.5 km/h 83 % 0 mm 0 W/m2
00:48 8.4 °C 5.7 °C 1027.7 hPa WSW 19.3 km/h 29 km/h 83 % 0 mm 0 W/m2
00:53 8.6 °C 5.9 °C 1027.7 hPa WSW 14.5 km/h 29 km/h 83 % 0 mm 0 W/m2
00:58 8.6 °C 5.9 °C 1027.7 hPa WSW 12.9 km/h 20.9 km/h 83 % 0 mm 0 W/m2
01:03 8.6 °C 5.9 °C 1027.7 hPa WSW 14.5 km/h 20.9 km/h 83 % 0 mm 0 W/m2
01:08 8.7 °C 5.8 °C 1027.7 hPa WSW 14.5 km/h 20.9 km/h 82 % 0 mm 0 W/m2
01:13 8.7 °C 5.8 °C 1027.3 hPa West 11.3 km/h 19.3 km/h 82 % 0 mm 0 W/m2
01:18 8.7 °C 5.8 °C 1027.3 hPa West 8 km/h 16.1 km/h 82 % 0 mm 0 W/m2
01:23 8.7 °C 5.8 °C 1027.3 hPa West 11.3 km/h 14.5 km/h 82 % 0 mm 0 W/m2
01:28 8.7 °C 5.8 °C 1027.3 hPa WSW 11.3 km/h 16.1 km/h 82 % 0 mm 0 W/m2
01:33 8.7 °C 5.8 °C 1027.3 hPa West 12.9 km/h 22.5 km/h 82 % 0 mm 0 W/m2
01:38 8.7 °C 5.8 °C 1027.3 hPa West 11.3 km/h 16.1 km/h 82 % 0 mm 0 W/m2
01:43 8.7 °C 5.8 °C 1027.3 hPa West 12.9 km/h 20.9 km/h 82 % 0 mm 0 W/m2
01:48 8.6 °C 5.7 °C 1027 hPa West 14.5 km/h 20.9 km/h 82 % 0 mm 0 W/m2
01:53 8.6 °C 5.7 °C 1027 hPa West 11.3 km/h 17.7 km/h 82 % 0 mm 0 W/m2
01:58 8.5 °C 5.6 °C 1027.3 hPa West 9.7 km/h 12.9 km/h 82 % 0 mm 0 W/m2
02:03 8.4 °C 5.5 °C 1027 hPa West 9.7 km/h 16.1 km/h 82 % 0 mm 0 W/m2
02:08 8.3 °C 5.6 °C 1027 hPa West 8 km/h 12.9 km/h 83 % 0 mm 0 W/m2
02:13 8.3 °C 5.8 °C 1027 hPa WSW 8 km/h 14.5 km/h 84 % 0 mm 0 W/m2
02:19 8.3 °C 5.8 °C 1027 hPa WSW 11.3 km/h 14.5 km/h 84 % 0 mm 0 W/m2
02:24 8.3 °C 5.8 °C 1027 hPa WSW 9.7 km/h 14.5 km/h 84 % 0 mm 0 W/m2
02:29 8.4 °C 5.8 °C 1027 hPa WSW 16.1 km/h 25.7 km/h 84 % 0 mm 0 W/m2
02:34 8.6 °C 5.9 °C 1027 hPa WSW 17.7 km/h 32.2 km/h 83 % 0 mm 0 W/m2
02:39 8.7 °C 6 °C 1027 hPa West 17.7 km/h 24.1 km/h 83 % 0 mm 0 W/m2
02:44 8.8 °C 6.1 °C 1027 hPa West 12.9 km/h 19.3 km/h 83 % 0 mm 0 W/m2
02:49 8.8 °C 5.9 °C 1027 hPa WSW 11.3 km/h 19.3 km/h 82 % 0 mm 0 W/m2
02:54 8.8 °C 5.9 °C 1027 hPa West 11.3 km/h 19.3 km/h 82 % 0 mm 0 W/m2
02:59 8.8 °C 5.9 °C 1026.6 hPa West 19.3 km/h 30.6 km/h 82 % 0 mm 0 W/m2
03:04 8.9 °C 6 °C 1026.6 hPa West 17.7 km/h 29 km/h 82 % 0 mm 0 W/m2
03:09 8.9 °C 5.8 °C 1026.6 hPa West 14.5 km/h 22.5 km/h 81 % 0 mm 0 W/m2
03:14 8.8 °C 5.7 °C 1026.6 hPa West 17.7 km/h 25.7 km/h 81 % 0 mm 0 W/m2
03:15 8.9 °C 5.8 °C 1026.6 hPa West 17.7 km/h 25.7 km/h 81 % 0 mm 0 W/m2
03:20 8.9 °C 5.8 °C 1026.6 hPa West 16.1 km/h 29 km/h 81 % 0 mm 0 W/m2
03:25 8.9 °C 5.8 °C 1026.6 hPa West 16.1 km/h 29 km/h 81 % 0 mm 0 W/m2
03:30 9 °C 5.9 °C 1026.6 hPa West 14.5 km/h 25.7 km/h 81 % 0 mm 0 W/m2
03:35 9.1 °C 5.8 °C 1026.6 hPa West 16.1 km/h 24.1 km/h 80 % 0 mm 0 W/m2
03:40 9.1 °C 5.8 °C 1026.6 hPa WNW 19.3 km/h 33.8 km/h 80 % 0 mm 0 W/m2
03:45 9.1 °C 5.8 °C 1026.3 hPa WSW 14.5 km/h 24.1 km/h 80 % 0 mm 0 W/m2
03:55 9.1 °C 5.8 °C 1026.3 hPa West 14.5 km/h 24.1 km/h 80 % 0 mm 0 W/m2
04:00 9.1 °C 5.8 °C 1026.3 hPa West 12.9 km/h 22.5 km/h 80 % 0 mm 0 W/m2
04:05 9.1 °C 5.8 °C 1026.3 hPa West 12.9 km/h 24.1 km/h 80 % 0 mm 0 W/m2
04:10 9.1 °C 5.8 °C 1026 hPa West 19.3 km/h 32.2 km/h 80 % 0 mm 0 W/m2
04:15 9.1 °C 5.7 °C 1026.3 hPa West 12.9 km/h 17.7 km/h 79 % 0 mm 0 W/m2
04:20 9.1 °C 5.7 °C 1026.3 hPa West 11.3 km/h 20.9 km/h 79 % 0 mm 0 W/m2
04:25 9.1 °C 5.7 °C 1026 hPa West 14.5 km/h 22.5 km/h 79 % 0 mm 0 W/m2
04:30 9.1 °C 5.7 °C 1026 hPa WSW 11.3 km/h 22.5 km/h 79 % 0 mm 0 W/m2
04:31 9.1 °C 5.7 °C 1026 hPa WSW 12.9 km/h 22.5 km/h 79 % 0 mm 0 W/m2
04:36 9.2 °C 5.6 °C 1026 hPa WSW 16.1 km/h 22.5 km/h 78 % 0 mm 0 W/m2
04:41 9.3 °C 5.7 °C 1025.6 hPa West 16.1 km/h 25.7 km/h 78 % 0 mm 0 W/m2
04:46 9.3 °C 5.4 °C 1025.6 hPa WSW 16.1 km/h 20.9 km/h 77 % 0 mm 0 W/m2
04:51 9.3 °C 5.4 °C 1025.6 hPa WSW 14.5 km/h 32.2 km/h 77 % 0 mm 0 W/m2
04:56 9.3 °C 5.4 °C 1025.6 hPa West 12.9 km/h 19.3 km/h 77 % 0 mm 0 W/m2
05:01 9.3 °C 5.4 °C 1025.3 hPa WSW 9.7 km/h 20.9 km/h 77 % 0 mm 0 W/m2
05:06 9.2 °C 5.4 °C 1025.3 hPa WSW 8 km/h 14.5 km/h 77 % 0 mm 0 W/m2
05:11 9.1 °C 5.3 °C 1025.3 hPa WSW 8 km/h 9.7 km/h 77 % 0 mm 0 W/m2
05:16 9.1 °C 5.3 °C 1025.3 hPa WSW 6.4 km/h 11.3 km/h 77 % 0 mm 0 W/m2
05:21 9 °C 5.2 °C 1025.3 hPa WSW 9.7 km/h 17.7 km/h 77 % 0 mm 0 W/m2
05:26 9.1 °C 5.4 °C 1024.9 hPa WSW 16.1 km/h 22.5 km/h 78 % 0 mm 0 W/m2
05:31 9.3 °C 5.7 °C 1024.9 hPa WSW 16.1 km/h 30.6 km/h 78 % 0 mm 0 W/m2
05:36 9.4 °C 5.8 °C 1024.9 hPa West 20.9 km/h 32.2 km/h 78 % 0 mm 0 W/m2
05:41 9.6 °C 5.9 °C 1024.9 hPa WSW 22.5 km/h 30.6 km/h 78 % 0 mm 0 W/m2
05:46 9.6 °C 5.9 °C 1024.9 hPa WSW 17.7 km/h 25.7 km/h 78 % 0 mm 0 W/m2
05:51 9.6 °C 5.9 °C 1024.9 hPa WSW 12.9 km/h 24.1 km/h 78 % 0 mm 0 W/m2
05:56 9.6 °C 5.9 °C 1024.9 hPa WSW 14.5 km/h 22.5 km/h 78 % 0 mm 0 W/m2
06:01 9.4 °C 5.9 °C 1024.9 hPa WSW 17.7 km/h 29 km/h 79 % 0 mm 0 W/m2
06:06 9.4 °C 6.1 °C 1024.9 hPa WSW 17.7 km/h 32.2 km/h 80 % 0 mm 0 W/m2
06:11 9.2 °C 5.9 °C 1024.9 hPa WSW 14.5 km/h 25.7 km/h 80 % 0 mm 0 W/m2
06:16 9.1 °C 6 °C 1024.6 hPa WSW 12.9 km/h 20.9 km/h 81 % 0 mm 0 W/m2
06:21 9.1 °C 6 °C 1024.6 hPa SW 12.9 km/h 20.9 km/h 81 % 0 mm 0 W/m2
06:26 9 °C 5.9 °C 1024.6 hPa WSW 12.9 km/h 19.3 km/h 81 % 0 mm 0 W/m2
06:31 9 °C 5.9 °C 1024.3 hPa WSW 14.5 km/h 22.5 km/h 81 % 0 mm 0 W/m2
06:36 9.1 °C 6 °C 1024.3 hPa WSW 16.1 km/h 24.1 km/h 81 % 0 mm 0 W/m2
06:41 9.1 °C 5.8 °C 1024.3 hPa WSW 14.5 km/h 20.9 km/h 80 % 0 mm 0 W/m2
06:46 9.1 °C 5.8 °C 1024.3 hPa WSW 12.9 km/h 19.3 km/h 80 % 0 mm 0 W/m2
06:51 9.1 °C 5.8 °C 1024.3 hPa WSW 17.7 km/h 29 km/h 80 % 0 mm 0 W/m2
06:56 9.3 °C 6 °C 1024.3 hPa WSW 14.5 km/h 30.6 km/h 80 % 0 mm 0 W/m2
07:01 9.3 °C 5.8 °C 1024.3 hPa WSW 14.5 km/h 24.1 km/h 79 % 0 mm 0 W/m2
07:06 9.4 °C 5.9 °C 1024.3 hPa WSW 17.7 km/h 32.2 km/h 79 % 0 mm 0 W/m2
07:11 9.5 °C 6.1 °C 1023.9 hPa WSW 17.7 km/h 25.7 km/h 79 % 0 mm 0 W/m2
07:16 9.5 °C 6.1 °C 1023.9 hPa West 19.3 km/h 29 km/h 79 % 0 mm 0 W/m2
07:21 9.5 °C 6.1 °C 1023.9 hPa WSW 14.5 km/h 20.9 km/h 79 % 0 mm 0 W/m2
07:26 9.5 °C 6.1 °C 1023.9 hPa WSW 17.7 km/h 25.7 km/h 79 % 0 mm 0 W/m2
07:31 9.6 °C 5.9 °C 1023.9 hPa WSW 16.1 km/h 24.1 km/h 78 % 0 mm 0 W/m2
07:37 9.6 °C 5.8 °C 1023.6 hPa WSW 16.1 km/h 24.1 km/h 77 % 0 mm 0 W/m2
07:42 9.7 °C 5.7 °C 1023.6 hPa WSW 16.1 km/h 29 km/h 76 % 0 mm 0 W/m2
07:47 9.8 °C 5.6 °C 1023.6 hPa WSW 20.9 km/h 32.2 km/h 75 % 0 mm 0 W/m2
07:52 9.9 °C 5.7 °C 1023.9 hPa SW 16.1 km/h 22.5 km/h 75 % 0 mm 5 W/m2
07:57 10 °C 5.6 °C 1023.9 hPa WSW 20.9 km/h 38.6 km/h 74 % 0 mm 5 W/m2
08:02 10.1 °C 5.5 °C 1023.9 hPa WSW 22.5 km/h 45.1 km/h 73 % 0 mm 5 W/m2
08:07 10.2 °C 5.8 °C 1023.9 hPa SW 24.1 km/h 38.6 km/h 74 % 0 mm 5 W/m2
08:12 10.1 °C 5.7 °C 1023.9 hPa SW 22.5 km/h 33.8 km/h 74 % 0 mm 9 W/m2
08:17 10.1 °C 5.7 °C 1023.6 hPa SW 24.1 km/h 37 km/h 74 % 0 mm 14 W/m2
08:22 10.1 °C 5.9 °C 1023.6 hPa WSW 20.9 km/h 33.8 km/h 75 % 0 mm 18 W/m2
08:27 10.1 °C 5.7 °C 1023.6 hPa WSW 24.1 km/h 37 km/h 74 % 0 mm 25 W/m2
08:32 10.2 °C 5.8 °C 1023.6 hPa WSW 19.3 km/h 25.7 km/h 74 % 0 mm 30 W/m2
08:37 10.2 °C 5.8 °C 1023.2 hPa SW 19.3 km/h 25.7 km/h 74 % 0 mm 30 W/m2
08:42 10.2 °C 5.8 °C 1023.2 hPa SW 14.5 km/h 24.1 km/h 74 % 0 mm 32 W/m2
08:47 10.2 °C 5.8 °C 1023.2 hPa SW 16.1 km/h 22.5 km/h 74 % 0 mm 35 W/m2
08:52 10.1 °C 5.7 °C 1023.6 hPa WSW 14.5 km/h 29 km/h 74 % 0 mm 51 W/m2
08:57 10.2 °C 5.8 °C 1023.2 hPa SW 14.5 km/h 19.3 km/h 74 % 0 mm 58 W/m2
09:02 10.3 °C 5.9 °C 1023.2 hPa SW 16.1 km/h 22.5 km/h 74 % 0 mm 47 W/m2
09:07 10.4 °C 5.8 °C 1023.2 hPa SW 9.7 km/h 20.9 km/h 73 % 0 mm 35 W/m2
09:12 10.4 °C 5.8 °C 1023.2 hPa WSW 12.9 km/h 20.9 km/h 73 % 0 mm 35 W/m2
09:17 10.6 °C 5.8 °C 1023.2 hPa SW 17.7 km/h 33.8 km/h 72 % 0 mm 84 W/m2
09:22 10.7 °C 5.7 °C 1023.2 hPa SW 16.1 km/h 33.8 km/h 71 % 0 mm 113 W/m2
09:27 10.8 °C 5.7 °C 1023.2 hPa WSW 11.3 km/h 22.5 km/h 71 % 0 mm 123 W/m2
09:32 10.8 °C 5.6 °C 1023.2 hPa SW 12.9 km/h 19.3 km/h 70 % 0 mm 37 W/m2
09:37 10.8 °C 5.7 °C 1022.9 hPa SW 12.9 km/h 19.3 km/h 71 % 0 mm 39 W/m2
09:42 10.8 °C 5.7 °C 1022.9 hPa SSW 16.1 km/h 25.7 km/h 71 % 0 mm 39 W/m2
09:47 10.6 °C 5.8 °C 1023.2 hPa SW 14.5 km/h 20.9 km/h 72 % 0 mm 44 W/m2
09:52 10.6 °C 5.9 °C 1023.2 hPa SW 14.5 km/h 24.1 km/h 73 % 0 mm 49 W/m2
09:57 10.5 °C 6.1 °C 1022.9 hPa SW 12.9 km/h 20.9 km/h 74 % 0 mm 56 W/m2
10:02 10.4 °C 6.2 °C 1023.2 hPa SW 12.9 km/h 20.9 km/h 75 % 0 mm 49 W/m2
10:07 10.4 °C 6.2 °C 1022.9 hPa SW 12.9 km/h 16.1 km/h 75 % 0 mm 44 W/m2
10:12 10.3 °C 6.3 °C 1022.9 hPa SW 11.3 km/h 16.1 km/h 76 % 0 mm 35 W/m2
10:17 10.3 °C 6.4 °C 1022.9 hPa SSW 11.3 km/h 16.1 km/h 77 % 0 mm 32 W/m2
10:22 10.3 °C 6.4 °C 1022.9 hPa SW 12.9 km/h 24.1 km/h 77 % 0 mm 42 W/m2
10:27 10.3 °C 6.6 °C 1022.9 hPa SW 14.5 km/h 25.7 km/h 78 % 0 mm 33 W/m2
10:32 10.3 °C 6.6 °C 1022.9 hPa SW 8 km/h 12.9 km/h 78 % 0 mm 32 W/m2
10:37 10.3 °C 6.6 °C 1022.9 hPa SW 4.8 km/h 9.7 km/h 78 % 0 mm 37 W/m2
10:42 10.3 °C 6.6 °C 1022.9 hPa WSW 9.7 km/h 14.5 km/h 78 % 0 mm 33 W/m2
10:47 10.3 °C 6.6 °C 1022.6 hPa SW 11.3 km/h 19.3 km/h 78 % 0 mm 33 W/m2
10:52 10.4 °C 6.7 °C 1022.6 hPa SSW 16.1 km/h 22.5 km/h 78 % 0 mm 49 W/m2
10:57 10.4 °C 6.9 °C 1022.6 hPa SSW 11.3 km/h 17.7 km/h 79 % 0 mm 72 W/m2
11:03 10.4 °C 6.9 °C 1022.6 hPa SW 9.7 km/h 16.1 km/h 79 % 0 mm 77 W/m2
11:08 10.4 °C 6.7 °C 1022.2 hPa SSW 11.3 km/h 16.1 km/h 78 % 0 mm 86 W/m2
11:13 10.5 °C 6.8 °C 1022.2 hPa SSW 12.9 km/h 20.9 km/h 78 % 0 mm 74 W/m2
11:18 10.5 °C 6.8 °C 1022.2 hPa SSW 11.3 km/h 16.1 km/h 78 % 0 mm 88 W/m2
11:23 10.6 °C 6.9 °C 1022.2 hPa SSW 14.5 km/h 25.7 km/h 78 % 0 mm 91 W/m2
11:28 10.6 °C 6.7 °C 1021.9 hPa SSW 12.9 km/h 19.3 km/h 77 % 0 mm 83 W/m2
11:33 10.6 °C 6.7 °C 1021.9 hPa SSW 12.9 km/h 19.3 km/h 77 % 0 mm 72 W/m2
11:38 10.6 °C 6.7 °C 1021.9 hPa South 11.3 km/h 20.9 km/h 77 % 0 mm 83 W/m2
11:43 10.6 °C 6.6 °C 1021.6 hPa SSW 9.7 km/h 19.3 km/h 76 % 0 mm 65 W/m2
11:48 10.6 °C 6.3 °C 1021.6 hPa SSW 12.9 km/h 24.1 km/h 75 % 0 mm 63 W/m2
11:53 10.7 °C 6.4 °C 1021.2 hPa SW 12.9 km/h 22.5 km/h 75 % 0 mm 62 W/m2
11:58 10.7 °C 6.3 °C 1021.2 hPa SW 12.9 km/h 19.3 km/h 74 % 0 mm 67 W/m2
12:03 10.7 °C 6.3 °C 1021.2 hPa SW 12.9 km/h 20.9 km/h 74 % 0 mm 88 W/m2
12:07 10.8 °C 6.3 °C 1021.2 hPa SW 12.9 km/h 19.3 km/h 74 % 0 mm 83 W/m2
12:12 10.8 °C 6.2 °C 1021.2 hPa SSW 17.7 km/h 25.7 km/h 73 % 0 mm 93 W/m2
12:17 10.9 °C 6.4 °C 1021.2 hPa SSW 11.3 km/h 17.7 km/h 74 % 0 mm 142 W/m2
12:22 10.9 °C 6.4 °C 1020.9 hPa SW 11.3 km/h 17.7 km/h 74 % 0 mm 104 W/m2
12:27 10.9 °C 6.4 °C 1020.9 hPa SW 9.7 km/h 16.1 km/h 74 % 0 mm 98 W/m2
12:32 10.9 °C 6.7 °C 1020.9 hPa SSW 16.1 km/h 22.5 km/h 75 % 0 mm 91 W/m2
12:37 10.8 °C 6.7 °C 1020.9 hPa SSW 16.1 km/h 22.5 km/h 76 % 0 mm 77 W/m2
12:42 10.7 °C 6.7 °C 1020.5 hPa SSW 14.5 km/h 38.6 km/h 76 % 0 mm 79 W/m2
12:47 10.7 °C 6.7 °C 1020.5 hPa SW 12.9 km/h 24.1 km/h 76 % 0 mm 69 W/m2
12:52 10.7 °C 6.7 °C 1020.5 hPa SW 16.1 km/h 24.1 km/h 76 % 0 mm 76 W/m2
12:57 10.7 °C 6.8 °C 1020.2 hPa SSW 11.3 km/h 17.7 km/h 77 % 0 mm 86 W/m2
13:02 10.7 °C 6.8 °C 1020.2 hPa SW 16.1 km/h 25.7 km/h 77 % 0 mm 69 W/m2
13:07 10.7 °C 6.8 °C 1020.2 hPa SW 14.5 km/h 19.3 km/h 77 % 0 mm 67 W/m2
13:12 10.8 °C 6.9 °C 1020.2 hPa SSW 17.7 km/h 30.6 km/h 77 % 0 mm 104 W/m2
13:17 10.8 °C 6.9 °C 1019.9 hPa SW 19.3 km/h 29 km/h 77 % 0 mm 88 W/m2
13:22 10.8 °C 6.9 °C 1019.9 hPa SSW 16.1 km/h 24.1 km/h 77 % 0 mm 109 W/m2
13:27 10.9 °C 7 °C 1019.5 hPa SSW 12.9 km/h 29 km/h 77 % 0 mm 86 W/m2
13:33 10.8 °C 6.9 °C 1019.5 hPa SSW 20.9 km/h 30.6 km/h 77 % 0 mm 81 W/m2
13:38 10.8 °C 6.9 °C 1019.5 hPa SSW 19.3 km/h 32.2 km/h 77 % 0 mm 79 W/m2
13:43 10.7 °C 6.8 °C 1019.2 hPa SSW 19.3 km/h 30.6 km/h 77 % 0 mm 79 W/m2
13:48 10.7 °C 6.8 °C 1019.2 hPa SSW 16.1 km/h 22.5 km/h 77 % 0 mm 67 W/m2
13:53 10.6 °C 6.7 °C 1019.2 hPa SW 22.5 km/h 35.4 km/h 77 % 0 mm 63 W/m2
14:03 10.6 °C 6.7 °C 1018.8 hPa SW 19.3 km/h 32.2 km/h 77 % 0 mm 67 W/m2
14:08 10.6 °C 6.7 °C 1018.8 hPa SW 20.9 km/h 37 km/h 77 % 0 mm 63 W/m2
14:13 10.5 °C 6.6 °C 1018.5 hPa SW 17.7 km/h 25.7 km/h 77 % 0 mm 56 W/m2
14:18 10.5 °C 6.6 °C 1018.5 hPa SW 22.5 km/h 33.8 km/h 77 % 0 mm 53 W/m2
14:23 10.5 °C 6.6 °C 1018.5 hPa SW 17.7 km/h 25.7 km/h 77 % 0 mm 49 W/m2
14:28 10.4 °C 6.6 °C 1018.5 hPa SW 19.3 km/h 32.2 km/h 77 % 0 mm 47 W/m2
14:33 10.4 °C 6.7 °C 1018.2 hPa SW 22.5 km/h 35.4 km/h 78 % 0 mm 44 W/m2
14:38 10.3 °C 6.6 °C 1018.2 hPa SW 20.9 km/h 38.6 km/h 78 % 0 mm 42 W/m2
14:43 10.3 °C 6.6 °C 1018.2 hPa SW 16.1 km/h 24.1 km/h 78 % 0 mm 46 W/m2
14:48 10.3 °C 6.6 °C 1017.8 hPa SW 16.1 km/h 24.1 km/h 78 % 0 mm 40 W/m2
14:53 10.4 °C 6.7 °C 1017.8 hPa SSW 20.9 km/h 32.2 km/h 78 % 0 mm 33 W/m2
14:58 10.4 °C 6.6 °C 1017.8 hPa SW 22.5 km/h 43.5 km/h 77 % 0 mm 30 W/m2
15:03 10.4 °C 6.6 °C 1017.5 hPa SW 12.9 km/h 24.1 km/h 77 % 0 mm 23 W/m2
15:08 10.4 °C 6.6 °C 1017.5 hPa WSW 16.1 km/h 25.7 km/h 77 % 0 mm 18 W/m2
15:14 10.4 °C 6.7 °C 1017.5 hPa SW 25.7 km/h 38.6 km/h 78 % 0 mm 14 W/m2
15:19 10.4 °C 6.6 °C 1017.5 hPa WSW 17.7 km/h 29 km/h 77 % 0 mm 11 W/m2
15:24 10.5 °C 6.6 °C 1017.5 hPa SW 29 km/h 45.1 km/h 77 % 0 mm 9 W/m2
15:29 10.6 °C 6.7 °C 1017.5 hPa SW 19.3 km/h 25.7 km/h 77 % 0 mm 7 W/m2
15:34 10.6 °C 6.7 °C 1017.5 hPa SSW 19.3 km/h 32.2 km/h 77 % 0 mm 5 W/m2
15:39 10.6 °C 6.7 °C 1017.5 hPa SW 17.7 km/h 24.1 km/h 77 % 0 mm 0 W/m2
15:44 10.5 °C 6.6 °C 1017.2 hPa SW 14.5 km/h 25.7 km/h 77 % 0 mm 0 W/m2
15:49 10.5 °C 6.6 °C 1017.5 hPa SW 12.9 km/h 25.7 km/h 77 % 0 mm 0 W/m2
15:54 10.4 °C 6.6 °C 1017.2 hPa SW 16.1 km/h 24.1 km/h 77 % 0 mm 0 W/m2
15:59 10.4 °C 6.7 °C 1017.2 hPa SW 16.1 km/h 25.7 km/h 78 % 0 mm 0 W/m2
16:04 10.4 °C 6.7 °C 1017.2 hPa SW 14.5 km/h 30.6 km/h 78 % 0 mm 0 W/m2
16:09 10.3 °C 6.6 °C 1017.2 hPa SSW 16.1 km/h 29 km/h 78 % 0 mm 0 W/m2
16:13 10.3 °C 6.6 °C 1017.2 hPa SSW 20.9 km/h 33.8 km/h 78 % 0 mm 0 W/m2
16:18 10.3 °C 6.6 °C 1017.2 hPa SW 17.7 km/h 33.8 km/h 78 % 0 mm 0 W/m2
16:23 10.3 °C 6.6 °C 1016.8 hPa SSW 20.9 km/h 33.8 km/h 78 % 0 mm 0 W/m2
16:28 10.3 °C 6.8 °C 1016.5 hPa SSW 16.1 km/h 29 km/h 79 % 0 mm 0 W/m2
16:33 10.2 °C 6.7 °C 1016.5 hPa SSW 14.5 km/h 29 km/h 79 % 0 mm 0 W/m2
16:38 10.1 °C 6.6 °C 1016.1 hPa SSW 14.5 km/h 24.1 km/h 79 % 0 mm 0 W/m2
16:43 10.1 °C 6.8 °C 1016.5 hPa SSW 20.9 km/h 33.8 km/h 80 % 0 mm 0 W/m2
16:48 10 °C 6.7 °C 1016.1 hPa SSW 16.1 km/h 32.2 km/h 80 % 0 mm 0 W/m2
16:53 9.9 °C 6.6 °C 1016.1 hPa SW 17.7 km/h 25.7 km/h 80 % 0 mm 0 W/m2
16:58 9.9 °C 6.6 °C 1016.1 hPa SW 12.9 km/h 25.7 km/h 80 % 0 mm 0 W/m2
17:03 9.9 °C 6.8 °C 1016.1 hPa SSW 12.9 km/h 24.1 km/h 81 % 0 mm 0 W/m2
17:08 9.9 °C 6.8 °C 1015.8 hPa SSW 9.7 km/h 16.1 km/h 81 % 0 mm 0 W/m2
17:13 9.8 °C 6.7 °C 1015.8 hPa SSW 16.1 km/h 22.5 km/h 81 % 0 mm 0 W/m2
17:18 9.8 °C 6.7 °C 1015.8 hPa SSW 14.5 km/h 29 km/h 81 % 0 mm 0 W/m2
17:23 9.8 °C 6.7 °C 1015.5 hPa SSW 14.5 km/h 24.1 km/h 81 % 0 mm 0 W/m2
17:28 9.8 °C 6.7 °C 1015.5 hPa South 11.3 km/h 22.5 km/h 81 % 0 mm 0 W/m2
17:33 9.7 °C 6.8 °C 1015.5 hPa SSW 12.9 km/h 24.1 km/h 82 % 0 mm 0 W/m2
17:38 9.7 °C 6.8 °C 1015.1 hPa SSW 14.5 km/h 29 km/h 82 % 0 mm 0 W/m2
17:43 9.7 °C 6.8 °C 1015.1 hPa SW 14.5 km/h 22.5 km/h 82 % 0 mm 0 W/m2
17:48 9.7 °C 6.8 °C 1015.1 hPa SW 19.3 km/h 32.2 km/h 82 % 0 mm 0 W/m2
17:53 9.8 °C 6.9 °C 1014.8 hPa SSW 12.9 km/h 19.3 km/h 82 % 0 mm 0 W/m2
17:59 9.7 °C 6.8 °C 1014.8 hPa SSW 12.9 km/h 25.7 km/h 82 % 0 mm 0 W/m2
18:04 9.7 °C 6.8 °C 1014.8 hPa SSW 16.1 km/h 29 km/h 82 % 0 mm 0 W/m2
18:09 9.7 °C 6.8 °C 1014.8 hPa SSW 14.5 km/h 19.3 km/h 82 % 0 mm 0 W/m2
18:14 9.7 °C 6.8 °C 1014.8 hPa SSW 16.1 km/h 25.7 km/h 82 % 0 mm 0 W/m2
18:19 9.7 °C 6.8 °C 1014.4 hPa SSW 9.7 km/h 19.3 km/h 82 % 0 mm 0 W/m2
18:24 9.6 °C 6.8 °C 1014.1 hPa SSW 20.9 km/h 40.2 km/h 83 % 0 mm 0 W/m2
18:29 9.6 °C 6.8 °C 1014.1 hPa SW 16.1 km/h 22.5 km/h 83 % 0 mm 0 W/m2
18:34 9.7 °C 6.9 °C 1014.1 hPa SSW 11.3 km/h 19.3 km/h 83 % 0 mm 0 W/m2
18:39 9.7 °C 6.9 °C 1014.1 hPa SSW 20.9 km/h 37 km/h 83 % 0 mm 0 W/m2
18:44 9.7 °C 6.9 °C 1013.8 hPa SSW 19.3 km/h 37 km/h 83 % 0 mm 0 W/m2
18:49 9.8 °C 6.9 °C 1013.4 hPa SSW 19.3 km/h 38.6 km/h 82 % 0 mm 0 W/m2
18:54 9.8 °C 6.9 °C 1013.4 hPa SW 20.9 km/h 37 km/h 82 % 0 mm 0 W/m2
18:59 9.9 °C 6.9 °C 1013.1 hPa SW 24.1 km/h 51.5 km/h 82 % 0 mm 0 W/m2
19:04 9.9 °C 6.9 °C 1013.1 hPa SW 25.7 km/h 43.5 km/h 82 % 0 mm 0 W/m2
19:09 10 °C 7.1 °C 1013.1 hPa SW 24.1 km/h 41.8 km/h 82 % 0 mm 0 W/m2
19:14 9.9 °C 6.9 °C 1012.8 hPa SW 17.7 km/h 30.6 km/h 82 % 0 mm 0 W/m2
19:19 9.9 °C 6.9 °C 1012.8 hPa SW 25.7 km/h 45.1 km/h 82 % 0 mm 0 W/m2
19:24 9.9 °C 6.9 °C 1012.8 hPa SW 29 km/h 56.3 km/h 82 % 0 mm 0 W/m2
19:29 10 °C 7.1 °C 1012.8 hPa SW 30.6 km/h 48.3 km/h 82 % 0 mm 0 W/m2
19:34 10 °C 7.2 °C 1012.8 hPa SW 33.8 km/h 51.5 km/h 83 % 0 mm 0 W/m2
19:39 10.1 °C 7.2 °C 1012.8 hPa SW 35.4 km/h 48.3 km/h 82 % 0 mm 0 W/m2
19:44 10.1 °C 7.2 °C 1012.4 hPa SW 33.8 km/h 49.9 km/h 82 % 0 mm 0 W/m2
19:49 10.1 °C 7.2 °C 1012.4 hPa SW 35.4 km/h 53.1 km/h 82 % 0 mm 0 W/m2
19:54 10.2 °C 7.3 °C 1012.4 hPa SW 37 km/h 51.5 km/h 82 % 0 mm 0 W/m2
19:59 10.2 °C 7.4 °C 1012.1 hPa SW 40.2 km/h 61.2 km/h 83 % 0 mm 0 W/m2
20:04 10.2 °C 7.4 °C 1012.1 hPa SW 32.2 km/h 48.3 km/h 83 % 0 mm 0 W/m2
20:09 10.2 °C 7.4 °C 1012.1 hPa SW 33.8 km/h 48.3 km/h 83 % 0 mm 0 W/m2
20:14 10.2 °C 7.4 °C 1012.1 hPa SW 35.4 km/h 56.3 km/h 83 % 0 mm 0 W/m2
20:19 10.2 °C 7.4 °C 1012.1 hPa SW 41.8 km/h 59.5 km/h 83 % 0 mm 0 W/m2
20:24 10.2 °C 7.4 °C 1012.1 hPa SW 41.8 km/h 56.3 km/h 83 % 0 mm 0 W/m2
20:29 10.3 °C 7.6 °C 1012.1 hPa SW 38.6 km/h 53.1 km/h 83 % 0 mm 0 W/m2
20:34 10.2 °C 7.4 °C 1012.1 hPa SW 33.8 km/h 49.9 km/h 83 % 0 mm 0 W/m2
20:39 10.2 °C 7.6 °C 1012.1 hPa SW 35.4 km/h 53.1 km/h 84 % 0 mm 0 W/m2
20:44 10.2 °C 7.6 °C 1012.1 hPa SW 29 km/h 45.1 km/h 84 % 0 mm 0 W/m2
20:49 10.2 °C 7.6 °C 1011.7 hPa SW 33.8 km/h 46.7 km/h 84 % 0 mm 0 W/m2
20:54 10.2 °C 7.6 °C 1011.7 hPa SW 25.7 km/h 43.5 km/h 84 % 0 mm 0 W/m2
21:00 10.2 °C 7.6 °C 1011.7 hPa SW 30.6 km/h 45.1 km/h 84 % 0 mm 0 W/m2
21:05 10.3 °C 7.7 °C 1011.7 hPa SW 24.1 km/h 37 km/h 84 % 0 mm 0 W/m2
21:10 10.3 °C 7.7 °C 1011.7 hPa SW 25.7 km/h 46.7 km/h 84 % 0 mm 0 W/m2
21:15 10.4 °C 7.6 °C 1011.7 hPa SW 29 km/h 40.2 km/h 83 % 0 mm 0 W/m2
21:20 10.4 °C 7.6 °C 1011.4 hPa SW 27.4 km/h 45.1 km/h 83 % 0 mm 0 W/m2
21:25 10.4 °C 7.6 °C 1011.1 hPa SSW 24.1 km/h 37 km/h 83 % 0 mm 0 W/m2
21:30 10.4 °C 7.6 °C 1011.1 hPa SSW 27.4 km/h 43.5 km/h 83 % 0 mm 0 W/m2
21:35 10.4 °C 7.6 °C 1011.1 hPa SW 32.2 km/h 48.3 km/h 83 % 0 mm 0 W/m2
21:40 10.5 °C 7.7 °C 1011.1 hPa SW 25.7 km/h 43.5 km/h 83 % 0 mm 0 W/m2
21:45 10.4 °C 7.8 °C 1010.7 hPa SSW 22.5 km/h 41.8 km/h 84 % 0 mm 0 W/m2
21:50 10.4 °C 7.8 °C 1010.4 hPa SSW 29 km/h 43.5 km/h 84 % 0 mm 0 W/m2
21:55 10.4 °C 7.8 °C 1010.4 hPa SSW 27.4 km/h 45.1 km/h 84 % 0 mm 0 W/m2
22:00 10.6 °C 8 °C 1010.4 hPa SSW 24.1 km/h 37 km/h 84 % 0 mm 0 W/m2
22:05 10.6 °C 8 °C 1010 hPa SW 30.6 km/h 48.3 km/h 84 % 0 mm 0 W/m2
22:10 10.6 °C 7.8 °C 1010 hPa SSW 27.4 km/h 46.7 km/h 83 % 0 mm 0 W/m2
22:15 10.6 °C 8 °C 1010 hPa SW 33.8 km/h 48.3 km/h 84 % 0 mm 0 W/m2
22:20 10.6 °C 7.8 °C 1009.7 hPa SW 25.7 km/h 43.5 km/h 83 % 0 mm 0 W/m2
22:25 10.6 °C 7.8 °C 1009.7 hPa SW 33.8 km/h 57.9 km/h 83 % 0 mm 0 W/m2
22:30 10.7 °C 7.9 °C 1009.7 hPa SSW 27.4 km/h 41.8 km/h 83 % 0 mm 0 W/m2
22:35 10.6 °C 7.8 °C 1009.4 hPa SSW 32.2 km/h 53.1 km/h 83 % 0 mm 0 W/m2
22:40 10.6 °C 8 °C 1009.7 hPa SSW 32.2 km/h 48.3 km/h 84 % 0 mm 0 W/m2
22:45 10.6 °C 8 °C 1009 hPa SSW 32.2 km/h 45.1 km/h 84 % 0 mm 0 W/m2
22:50 10.6 °C 8 °C 1009 hPa SW 30.6 km/h 45.1 km/h 84 % 0 mm 0 W/m2
22:55 10.6 °C 8 °C 1009 hPa SW 35.4 km/h 53.1 km/h 84 % 0 mm 0 W/m2
23:00 10.6 °C 8.2 °C 1009 hPa SSW 32.2 km/h 53.1 km/h 85 % 0 mm 0 W/m2
23:05 10.6 °C 8 °C 1009 hPa SW 27.4 km/h 37 km/h 84 % 0 mm 0 W/m2
23:10 10.7 °C 8.3 °C 1009 hPa SW 32.2 km/h 48.3 km/h 85 % 0 mm 0 W/m2
23:15 10.8 °C 8.4 °C 1008.7 hPa SSW 32.2 km/h 48.3 km/h 85 % 0 mm 0 W/m2
23:20 10.8 °C 8.2 °C 1008.7 hPa SSW 29 km/h 45.1 km/h 84 % 0 mm 0 W/m2
23:25 10.8 °C 8.2 °C 1008.4 hPa SSW 30.6 km/h 54.7 km/h 84 % 0 mm 0 W/m2
23:30 10.9 °C 8.3 °C 1008.4 hPa SW 27.4 km/h 40.2 km/h 84 % 0 mm 0 W/m2
23:35 10.9 °C 8.3 °C 1008.4 hPa SW 27.4 km/h 40.2 km/h 84 % 0 mm 0 W/m2
23:40 10.9 °C 8.3 °C 1008.4 hPa SW 25.7 km/h 41.8 km/h 84 % 0 mm 0 W/m2
23:45 11 °C 8.4 °C 1008 hPa SSW 25.7 km/h 37 km/h 84 % 0 mm 0 W/m2
23:50 11.1 °C 8.5 °C 1008 hPa SSW 29 km/h 48.3 km/h 84 % 0 mm 0 W/m2
23:55 11.1 °C 8.5 °C 1008 hPa SSW 29 km/h 41.8 km/h 84 % 0 mm 0 W/m2
Delerius-Weather
Compliments of Weather Underground - 2.25 mb

Data updates at regular intervals.